createdAt,value
2018-04-01T00:00:58.935Z,46.00
2018-04-01T00:03:26.574Z,49.47
2018-04-01T00:05:54.320Z,50.17
2018-04-01T00:08:22.729Z,44.30
2018-04-01T00:10:50.406Z,47.30
2018-04-01T00:13:18.055Z,48.63
2018-04-01T00:15:45.681Z,43.37
2018-04-01T00:18:13.302Z,45.20
2018-04-01T00:20:40.919Z,48.53
2018-04-01T00:23:08.879Z,45.67
2018-04-01T00:25:37.261Z,44.80
2018-04-01T00:28:06.068Z,52.23
2018-04-01T00:30:33.686Z,51.57
2018-04-01T00:33:01.335Z,48.73
2018-04-01T00:35:28.954Z,52.47
2018-04-01T00:37:56.587Z,46.47
2018-04-01T00:40:24.209Z,47.27
2018-04-01T00:42:51.844Z,47.17
2018-04-01T00:45:19.472Z,48.37
2018-04-01T00:47:47.916Z,45.90
2018-04-01T00:50:15.498Z,43.17
2018-04-01T00:52:43.156Z,45.80
2018-04-01T00:55:10.784Z,49.60
2018-04-01T00:57:39.960Z,44.13
2018-04-01T01:00:07.575Z,48.47
2018-04-01T01:02:35.229Z,47.17
2018-04-01T01:05:02.842Z,40.83
2018-04-01T01:07:31.252Z,42.10
2018-04-01T01:09:58.872Z,42.77
2018-04-01T01:12:27.282Z,43.20
2018-04-01T01:14:54.895Z,44.73
2018-04-01T01:17:23.296Z,45.60
2018-04-01T01:19:50.937Z,43.67
2018-04-01T01:22:18.567Z,44.83
2018-04-01T01:24:46.953Z,47.17
2018-04-01T01:27:14.567Z,40.47
2018-04-01T01:29:43.642Z,47.37
2018-04-01T01:32:12.035Z,43.43
2018-04-01T01:34:40.436Z,41.97
2018-04-01T01:37:08.053Z,45.40
2018-04-01T01:39:35.675Z,35.40
2018-04-01T01:42:03.287Z,44.23
2018-04-01T01:44:30.937Z,48.60
2018-04-01T01:46:58.559Z,47.63
2018-04-01T01:49:26.202Z,46.07
2018-04-01T01:51:54.328Z,46.87
2018-04-01T01:54:21.978Z,51.83
2018-04-01T01:56:49.598Z,48.03
2018-04-01T01:59:17.239Z,46.53
2018-04-01T02:01:44.855Z,47.03
2018-04-01T02:04:12.495Z,47.50
2018-04-01T02:06:40.126Z,45.30
2018-04-01T02:09:07.792Z,40.00
2018-04-01T02:11:35.419Z,47.73
2018-04-01T02:14:03.066Z,43.93
2018-04-01T02:16:30.692Z,51.20
2018-04-01T02:18:58.327Z,50.70
2018-04-01T02:21:26.738Z,50.73
2018-04-01T02:23:54.374Z,47.73
2018-04-01T02:26:22.013Z,54.77
2018-04-01T02:28:49.639Z,46.03
2018-04-01T02:31:17.261Z,41.70
2018-04-01T02:33:44.899Z,41.43
2018-04-01T02:36:13.281Z,43.53
2018-04-01T02:38:41.738Z,46.63
2018-04-01T02:41:09.372Z,44.03
2018-04-01T02:43:37.015Z,39.13
2018-04-01T02:46:04.645Z,43.07
2018-04-01T02:48:33.520Z,43.33
2018-04-01T02:51:01.138Z,43.07
2018-04-01T02:53:29.750Z,40.53
2018-04-01T02:55:57.398Z,51.60
2018-04-01T02:58:25.058Z,47.90
2018-04-01T03:00:52.698Z,50.43
2018-04-01T03:03:20.338Z,51.03
2018-04-01T03:05:48.721Z,53.57
2018-04-01T03:08:17.136Z,53.43
2018-04-01T03:10:44.751Z,51.10
2018-04-01T03:13:13.146Z,45.47
2018-04-01T03:15:40.776Z,52.90
2018-04-01T03:18:08.483Z,48.10
2018-04-01T03:20:36.209Z,50.67
2018-04-01T03:23:03.847Z,43.87
2018-04-01T03:25:31.455Z,55.33
2018-04-01T03:27:59.119Z,52.53
2018-04-01T03:30:26.769Z,55.13
2018-04-01T03:32:54.501Z,51.03
2018-04-01T03:35:22.920Z,50.13
2018-04-01T03:37:51.302Z,55.07
2018-04-01T03:40:19.016Z,53.00
2018-04-01T03:42:46.682Z,55.43
2018-04-01T03:45:14.325Z,48.50
2018-04-01T03:47:41.940Z,50.43
2018-04-01T03:50:10.357Z,52.10
2018-04-01T03:52:39.276Z,53.50
2018-04-01T03:55:06.972Z,52.77
2018-04-01T03:57:35.371Z,54.23
2018-04-01T04:00:03.232Z,57.17
2018-04-01T04:02:35.563Z,59.70
2018-04-01T04:05:04.180Z,59.90
2018-04-01T04:07:32.585Z,64.10
2018-04-01T04:10:00.219Z,49.43
2018-04-01T04:12:27.857Z,56.73
2018-04-01T04:14:55.491Z,65.13
2018-04-01T04:17:23.124Z,55.30
2018-04-01T04:19:50.765Z,49.20
2018-04-01T04:22:19.138Z,51.57
2018-04-01T04:24:47.544Z,52.00
2018-04-01T04:27:15.164Z,59.50
2018-04-01T04:29:42.816Z,55.77
2018-04-01T04:32:10.832Z,48.57
2018-04-01T04:34:38.619Z,51.93
2018-04-01T04:37:06.236Z,42.43
2018-04-01T04:39:34.663Z,43.00
2018-04-01T04:42:02.278Z,49.43
2018-04-01T04:44:30.681Z,50.43
2018-04-01T04:46:58.355Z,48.17
2018-04-01T04:49:25.997Z,44.93
2018-04-01T04:51:54.370Z,56.40
2018-04-01T04:54:22.780Z,58.20
2018-04-01T04:56:50.391Z,61.33
2018-04-01T04:59:18.308Z,66.20
2018-04-01T05:01:45.919Z,66.00
2018-04-01T05:04:13.560Z,57.50
2018-04-01T05:06:41.188Z,69.67
2018-04-01T05:09:08.832Z,66.60
2018-04-01T05:11:36.718Z,61.23
2018-04-01T05:14:05.355Z,62.60
2018-04-01T05:16:33.179Z,71.67
2018-04-01T05:19:00.817Z,55.67
2018-04-01T05:21:28.440Z,66.43
2018-04-01T05:23:56.079Z,59.50
2018-04-01T05:26:23.694Z,71.40
2018-04-01T05:28:51.327Z,74.70
2018-04-01T05:31:18.948Z,68.83
2018-04-01T05:33:46.581Z,80.27
2018-04-01T05:36:15.266Z,79.07
2018-04-01T05:38:42.906Z,80.77
2018-04-01T05:41:10.524Z,84.97
2018-04-01T05:43:38.156Z,75.23
2018-04-01T05:46:05.777Z,77.27
2018-04-01T05:48:33.419Z,72.50
2018-04-01T05:51:01.039Z,75.23
2018-04-01T05:53:28.682Z,73.90
2018-04-01T05:55:57.077Z,70.20
2018-04-01T05:58:24.707Z,68.63
2018-04-01T06:00:52.345Z,81.57
2018-04-01T06:03:19.971Z,68.10
2018-04-01T06:05:48.488Z,62.83
2018-04-01T06:08:16.500Z,75.50
2018-04-01T06:10:44.131Z,68.37
2018-04-01T06:13:11.803Z,68.10
2018-04-01T06:15:39.452Z,74.37
2018-04-01T06:18:07.091Z,68.30
2018-04-01T06:20:34.744Z,77.70
2018-04-01T06:23:03.460Z,74.83
2018-04-01T06:25:31.123Z,74.07
2018-04-01T06:27:58.732Z,70.70
2018-04-01T06:30:26.390Z,66.43
2018-04-01T06:32:54.778Z,67.33
2018-04-01T06:35:23.289Z,79.37
2018-04-01T06:37:50.909Z,73.03
2018-04-01T06:40:18.630Z,59.47
2018-04-01T06:42:46.243Z,60.03
2018-04-01T06:45:14.688Z,58.37
2018-04-01T06:47:42.299Z,59.10
2018-04-01T06:50:09.941Z,60.90
2018-04-01T06:52:38.319Z,63.73
2018-04-01T06:55:06.721Z,63.90
2018-04-01T06:57:34.356Z,57.43
2018-04-01T07:00:02.055Z,68.30
2018-04-01T07:02:33.589Z,60.77
2018-04-01T07:05:01.249Z,67.00
2018-04-01T07:07:29.635Z,70.60
2018-04-01T07:09:57.284Z,70.70
2018-04-01T07:12:25.676Z,69.67
2018-04-01T07:14:53.320Z,69.73
2018-04-01T07:17:21.715Z,70.20
2018-04-01T07:19:49.364Z,70.63
2018-04-01T07:22:17.740Z,64.27
2018-04-01T07:24:46.144Z,57.27
2018-04-01T07:27:14.623Z,63.73
2018-04-01T07:29:42.322Z,67.20
2018-04-01T07:32:09.931Z,64.10
2018-04-01T07:34:38.322Z,59.27
2018-04-01T07:37:05.950Z,61.10
2018-04-01T07:39:33.579Z,58.63
2018-04-01T07:42:01.204Z,57.20
2018-04-01T07:44:28.850Z,59.40
2018-04-01T07:46:57.229Z,57.20
2018-04-01T07:49:25.628Z,46.30
2018-04-01T07:51:53.258Z,52.47
2018-04-01T07:54:20.903Z,48.03
2018-04-01T07:56:48.519Z,44.37
2018-04-01T07:59:16.154Z,48.30
2018-04-01T08:01:44.535Z,48.27
2018-04-01T08:04:12.968Z,47.20
2018-04-01T08:06:40.589Z,47.33
2018-04-01T08:09:09.035Z,47.17
2018-04-01T08:11:37.455Z,51.17
2018-04-01T08:14:05.075Z,44.87
2018-04-01T08:16:32.716Z,43.17
2018-04-01T08:19:00.328Z,48.57
2018-04-01T08:21:28.756Z,43.87
2018-04-01T08:23:56.368Z,43.30
2018-04-01T08:26:24.776Z,48.70
2018-04-01T08:28:52.412Z,52.27
2018-04-01T08:31:20.091Z,45.53
2018-04-01T08:33:47.708Z,46.47
2018-04-01T08:36:15.350Z,52.90
2018-04-01T08:38:42.967Z,51.33
2018-04-01T08:41:10.612Z,46.00
2018-04-01T08:43:39.004Z,52.10
2018-04-01T08:46:06.668Z,48.33
2018-04-01T08:48:34.278Z,49.10
2018-04-01T08:51:02.687Z,54.63
2018-04-01T08:53:30.307Z,51.57
2018-04-01T08:55:57.955Z,47.77
2018-04-01T08:58:25.575Z,43.67
2018-04-01T09:00:53.216Z,47.47
2018-04-01T09:03:20.846Z,48.40
2018-04-01T09:05:48.490Z,42.80
2018-04-01T09:08:17.657Z,43.47
2018-04-01T09:10:46.074Z,44.67
2018-04-01T09:13:16.114Z,41.37
2018-04-01T09:15:43.751Z,45.20
2018-04-01T09:18:11.368Z,46.17
2018-04-01T09:20:39.018Z,49.37
2018-04-01T09:23:06.642Z,47.30
2018-04-01T09:25:34.570Z,40.20
2018-04-01T09:28:02.953Z,43.40
2018-04-01T09:30:31.360Z,45.13
2018-04-01T09:32:58.973Z,42.13
2018-04-01T09:35:26.608Z,39.40
2018-04-01T09:37:54.244Z,39.20
2018-04-01T09:40:21.887Z,45.10
2018-04-01T09:42:50.266Z,40.77
2018-04-01T09:45:17.916Z,41.60
2018-04-01T09:47:46.360Z,37.87
2018-04-01T09:50:14.009Z,37.13
2018-04-01T09:52:41.636Z,42.87
2018-04-01T09:55:09.277Z,35.23
2018-04-01T09:57:36.891Z,37.63
2018-04-01T10:00:04.535Z,40.90
2018-04-01T10:02:35.416Z,34.47
2018-04-01T10:05:10.390Z,34.77
2018-04-01T10:07:38.479Z,33.43
2018-04-01T10:10:06.576Z,33.40
2018-04-01T10:12:34.713Z,33.40
2018-04-01T10:15:02.865Z,35.13
2018-04-01T10:17:31.755Z,33.20
2018-04-01T10:20:00.783Z,34.03
2018-04-01T10:22:29.644Z,37.87
2018-04-01T10:24:58.524Z,39.33
2018-04-01T10:27:26.648Z,32.10
2018-04-01T10:29:54.751Z,35.13
2018-04-01T10:32:22.879Z,37.27
2018-04-01T10:34:50.991Z,37.20
2018-04-01T10:37:20.339Z,36.93
2018-04-01T10:39:48.450Z,39.07
2018-04-01T10:42:16.575Z,41.77
2018-04-01T10:44:46.572Z,35.67
2018-04-01T10:47:17.047Z,38.30
2018-04-01T10:49:45.059Z,36.13
2018-04-01T10:52:13.190Z,35.50
2018-04-01T10:54:41.016Z,35.23
2018-04-01T10:57:08.746Z,30.83
2018-04-01T10:59:36.364Z,32.40
2018-04-01T11:02:04.064Z,33.63
2018-04-01T11:04:31.675Z,33.93
2018-04-01T11:07:00.076Z,31.23
2018-04-01T11:09:27.691Z,35.57
2018-04-01T11:11:55.354Z,32.10
2018-04-01T11:14:22.976Z,34.17
2018-04-01T11:16:50.583Z,28.80
2018-04-01T11:19:18.214Z,31.97
2018-04-01T11:21:45.828Z,30.73
2018-04-01T11:24:14.231Z,34.13
2018-04-01T11:26:41.838Z,35.00
2018-04-01T11:29:10.367Z,36.53
2018-04-01T11:31:37.992Z,35.17
2018-04-01T11:34:05.638Z,37.93
2018-04-01T11:36:33.259Z,34.37
2018-04-01T11:39:00.922Z,35.13
2018-04-01T11:41:28.527Z,35.40
2018-04-01T11:43:56.172Z,39.83
2018-04-01T11:46:24.542Z,38.10
2018-04-01T11:48:52.182Z,34.53
2018-04-01T11:51:19.796Z,29.50
2018-04-01T11:53:47.439Z,29.80
2018-04-01T11:56:15.052Z,32.60
2018-04-01T11:58:42.696Z,32.30
2018-04-01T12:01:10.786Z,30.33
2018-04-01T12:03:38.411Z,25.57
2018-04-01T12:06:06.047Z,25.23
2018-04-01T12:08:33.687Z,31.27
2018-04-01T12:11:01.332Z,27.77
2018-04-01T12:13:28.978Z,24.00
2018-04-01T12:15:56.610Z,23.60
2018-04-01T12:18:24.228Z,31.20
2018-04-01T12:23:25.894Z,28.70
2018-04-01T12:25:53.536Z,27.93
2018-04-01T12:28:21.919Z,31.73
2018-04-01T12:30:50.715Z,25.00
2018-04-01T12:33:19.463Z,26.27
2018-04-01T12:35:47.104Z,26.83
2018-04-01T12:38:14.727Z,26.43
2018-04-01T12:40:42.369Z,26.60
2018-04-01T12:43:09.992Z,29.40
2018-04-01T12:45:37.636Z,27.03
2018-04-01T12:48:05.268Z,28.17
2018-04-01T12:50:34.532Z,26.90
2018-04-01T12:53:02.097Z,27.80
2018-04-01T12:55:29.748Z,24.33
2018-04-01T12:57:59.587Z,26.50
2018-04-01T13:00:27.238Z,29.40
2018-04-01T13:02:54.871Z,24.70
2018-04-01T13:05:23.824Z,28.60
2018-04-01T13:07:52.220Z,26.40
2018-04-01T13:10:19.860Z,24.20
2018-04-01T13:12:48.289Z,25.60
2018-04-01T13:15:15.900Z,23.60
2018-04-01T13:17:45.543Z,25.93
2018-04-01T13:20:13.174Z,24.20
2018-04-01T13:22:41.603Z,23.40
2018-04-01T13:25:09.219Z,26.03
2018-04-01T13:27:37.633Z,31.80
2018-04-01T13:30:05.262Z,32.00
2018-04-01T13:32:34.407Z,30.07
2018-04-01T13:35:02.045Z,32.77
2018-04-01T13:37:31.024Z,27.47
2018-04-01T13:39:58.645Z,27.20
2018-04-01T13:42:26.352Z,31.80
2018-04-01T13:44:53.975Z,27.73
2018-04-01T13:47:21.625Z,27.00
2018-04-01T13:49:49.248Z,26.20
2018-04-01T13:52:16.887Z,26.20
2018-04-01T13:54:45.271Z,29.00
2018-04-01T13:57:12.910Z,30.63
2018-04-01T13:59:40.531Z,28.50
2018-04-01T14:02:10.343Z,30.63
2018-04-01T14:04:37.979Z,36.17
2018-04-01T14:07:06.359Z,31.97
2018-04-01T14:09:34.028Z,31.07
2018-04-01T14:12:01.672Z,33.50
2018-04-01T14:14:30.195Z,29.63
2018-04-01T14:16:58.658Z,33.07
2018-04-01T14:19:27.135Z,32.00
2018-04-01T14:21:54.781Z,29.67
2018-04-01T14:24:23.274Z,31.67
2018-04-01T14:26:50.907Z,35.37
2018-04-01T14:29:19.153Z,32.80
2018-04-01T14:31:46.783Z,36.30
2018-04-01T14:34:15.152Z,32.23
2018-04-01T14:36:42.794Z,33.90
2018-04-01T14:39:11.176Z,27.87
2018-04-01T14:41:39.579Z,32.33
2018-04-01T14:44:07.195Z,26.17
2018-04-01T14:46:34.831Z,27.93
2018-04-01T14:49:02.460Z,29.00
2018-04-01T14:51:30.110Z,27.50
2018-04-01T14:53:58.856Z,30.83
2018-04-01T14:56:26.562Z,34.83
2018-04-01T14:58:54.935Z,33.03
2018-04-01T15:01:23.330Z,37.73
2018-04-01T15:03:50.942Z,37.63
2018-04-01T15:06:18.587Z,28.60
2018-04-01T15:08:47.345Z,31.07
2018-04-01T15:11:16.540Z,32.40
2018-04-01T15:13:44.167Z,35.60
2018-04-01T15:16:12.667Z,32.80
2018-04-01T15:18:41.408Z,31.77
2018-04-01T15:21:09.043Z,27.00
2018-04-01T15:23:36.659Z,29.50
2018-04-01T15:26:04.369Z,28.47
2018-04-01T15:28:31.983Z,29.73
2018-04-01T15:30:59.623Z,25.90
2018-04-01T15:33:28.245Z,31.30
2018-04-01T15:35:58.124Z,24.77
2018-04-01T15:38:26.540Z,27.10
2018-04-01T15:40:54.920Z,24.20
2018-04-01T15:43:23.327Z,29.00
2018-04-01T15:45:50.944Z,29.17
2018-04-01T15:48:18.603Z,22.73
2018-04-01T15:50:46.224Z,22.30
2018-04-01T15:53:23.610Z,23.70
2018-04-01T15:55:51.945Z,24.40
2018-04-01T15:58:21.912Z,24.50
2018-04-01T16:00:56.091Z,24.83
2018-04-01T16:03:25.806Z,24.43
2018-04-01T16:05:53.432Z,22.47
2018-04-01T16:08:21.080Z,22.57
2018-04-01T16:10:48.799Z,23.00
2018-04-01T16:13:23.647Z,23.87
2018-04-01T16:15:51.351Z,20.73
2018-04-01T16:18:18.996Z,26.07
2018-04-01T16:20:46.611Z,22.20
2018-04-01T16:23:14.256Z,28.27
2018-04-01T16:25:42.630Z,42.20
2018-04-01T16:28:11.040Z,26.30
2018-04-01T16:30:38.669Z,23.80
2018-04-01T16:33:06.343Z,28.23
2018-04-01T16:35:35.288Z,30.87
2018-04-01T16:38:02.919Z,30.50
2018-04-01T16:40:30.572Z,26.97
2018-04-01T16:42:58.991Z,25.60
2018-04-01T16:45:27.534Z,27.37
2018-04-01T16:47:55.935Z,27.97
2018-04-01T16:50:23.551Z,24.93
2018-04-01T16:52:51.191Z,34.83
2018-04-01T16:55:18.912Z,31.17
2018-04-01T16:57:46.556Z,30.90
2018-04-01T17:00:14.931Z,26.77
2018-04-01T17:02:43.348Z,30.50
2018-04-01T17:05:10.963Z,33.47
2018-04-01T17:07:38.602Z,32.57
2018-04-01T17:10:06.223Z,32.27
2018-04-01T17:12:33.863Z,31.93
2018-04-01T17:15:02.257Z,32.67
2018-04-01T17:17:31.248Z,30.40
2018-04-01T17:19:59.627Z,33.30
2018-04-01T17:22:28.027Z,30.53
2018-04-01T17:24:55.644Z,34.23
2018-04-01T17:27:23.288Z,31.47
2018-04-01T17:29:50.920Z,28.27
2018-04-01T17:32:18.568Z,35.83
2018-04-01T17:34:46.216Z,30.67
2018-04-01T17:37:14.628Z,34.43
2018-04-01T17:39:42.242Z,33.77
2018-04-01T17:42:09.870Z,35.93
2018-04-01T17:44:37.487Z,32.83
2018-04-01T17:47:05.123Z,32.20
2018-04-01T17:49:32.744Z,31.37
2018-04-01T17:52:00.396Z,35.33
2018-04-01T17:54:28.004Z,31.43
2018-04-01T17:56:55.635Z,31.23
2018-04-01T17:59:23.251Z,33.83
2018-04-01T18:01:50.894Z,30.23
2018-04-01T18:04:18.651Z,32.47
2018-04-01T18:06:46.295Z,37.17
2018-04-01T18:09:13.911Z,33.30
2018-04-01T18:11:41.574Z,37.83
2018-04-01T18:14:09.944Z,42.20
2018-04-01T18:16:37.554Z,40.33
2018-04-01T18:19:05.247Z,37.17
2018-04-01T18:21:32.868Z,43.90
2018-04-01T18:24:00.509Z,44.03
2018-04-01T18:26:28.387Z,47.00
2018-04-01T18:28:56.252Z,44.90
2018-04-01T18:31:23.873Z,34.57
2018-04-01T18:33:52.269Z,38.60
2018-04-01T18:36:19.901Z,75.20
2018-04-01T18:38:47.536Z,109.43
2018-04-01T18:41:15.161Z,100.50
2018-04-01T18:43:42.807Z,88.70
2018-04-01T18:46:11.181Z,82.63
2018-04-01T18:48:39.604Z,147.43
2018-04-01T18:51:07.223Z,389.93
2018-04-01T18:53:35.636Z,409.77
2018-04-01T18:56:03.253Z,502.17
2018-04-01T18:58:31.663Z,514.37
2018-04-01T19:00:59.294Z,429.20
2018-04-01T19:03:27.707Z,427.80
2018-04-01T19:05:55.339Z,363.53
2018-04-01T19:08:23.759Z,274.73
2018-04-01T19:10:51.383Z,187.40
2018-04-01T19:13:19.791Z,171.07
2018-04-01T19:15:47.403Z,130.37
2018-04-01T19:18:16.307Z,88.80
2018-04-01T19:20:44.412Z,89.40
2018-04-01T19:23:13.065Z,64.93
2018-04-01T19:25:41.168Z,62.00
2018-04-01T19:28:09.302Z,56.73
2018-04-01T19:30:37.416Z,64.17
2018-04-01T19:33:05.668Z,52.70
2018-04-01T19:35:34.225Z,59.70
2018-04-01T19:38:02.525Z,55.43
2018-04-01T19:40:31.391Z,55.03
2018-04-01T19:42:59.574Z,49.30
2018-04-01T19:45:27.684Z,43.87
2018-04-01T19:47:55.811Z,45.40
2018-04-01T19:50:23.938Z,47.40
2018-04-01T19:52:52.068Z,51.70
2018-04-01T19:55:20.171Z,50.93
2018-04-01T19:57:48.299Z,48.27
2018-04-01T20:00:16.415Z,46.70
2018-04-01T20:02:44.552Z,43.53
2018-04-01T20:05:13.080Z,43.87
2018-04-01T20:07:41.210Z,47.50
2018-04-01T20:10:09.323Z,47.93
2018-04-01T20:12:37.455Z,50.70
2018-04-01T20:15:05.565Z,52.50
2018-04-01T20:17:33.700Z,50.20
2018-04-01T20:20:01.807Z,51.87
2018-04-01T20:22:29.955Z,62.03
2018-04-01T20:24:58.056Z,60.90
2018-04-01T20:27:26.265Z,56.43
2018-04-01T20:29:55.214Z,62.90
2018-04-01T20:32:24.119Z,55.93
2018-04-01T20:34:52.249Z,59.37
2018-04-01T20:37:21.972Z,57.10
2018-04-01T20:39:50.110Z,57.90
2018-04-01T20:42:18.227Z,62.47
2018-04-01T20:44:47.124Z,59.73
2018-04-01T20:47:16.007Z,58.67
2018-04-01T20:49:44.904Z,62.97
2018-04-01T20:52:13.456Z,58.43
2018-04-01T20:54:41.590Z,59.73
2018-04-01T20:57:09.707Z,59.77
2018-04-01T20:59:37.836Z,63.67
2018-04-01T21:02:05.938Z,59.60
2018-04-01T21:04:34.071Z,58.00
2018-04-01T21:07:02.443Z,52.30
2018-04-01T21:09:30.568Z,58.63
2018-04-01T21:11:58.675Z,56.00
2018-04-01T21:14:27.571Z,55.07
2018-04-01T21:16:56.446Z,59.57
2018-04-01T21:19:24.583Z,55.03
2018-04-01T21:21:52.690Z,56.47
2018-04-01T21:24:20.818Z,63.37
2018-04-01T21:26:48.935Z,65.20
2018-04-01T21:29:17.065Z,55.30
2018-04-01T21:31:45.208Z,51.13
2018-04-01T21:34:13.343Z,54.10
2018-04-01T21:36:41.454Z,53.60
2018-04-01T21:39:09.579Z,50.97
2018-04-01T21:41:37.687Z,54.80
2018-04-01T21:44:06.602Z,52.07
2018-04-01T21:46:34.711Z,59.67
2018-04-01T21:49:02.978Z,49.30
2018-04-01T21:51:31.867Z,51.80
2018-04-01T21:54:00.008Z,56.50
2018-04-01T21:56:28.116Z,48.73
2018-04-01T21:58:56.260Z,51.77
2018-04-01T22:01:24.371Z,47.77
2018-04-01T22:03:52.499Z,49.47
2018-04-01T22:06:20.628Z,48.67
2018-04-01T22:08:48.774Z,55.13
2018-04-01T22:11:16.889Z,51.93
2018-04-01T22:13:45.019Z,44.57
2018-04-01T22:16:13.123Z,51.67
2018-04-01T22:18:41.258Z,56.57
2018-04-01T22:21:09.371Z,56.90
2018-04-01T22:23:37.492Z,57.67
2018-04-01T22:26:05.608Z,54.23
2018-04-01T22:28:33.736Z,54.40
2018-04-01T22:31:01.847Z,59.90
2018-04-01T22:33:29.991Z,58.37
2018-04-01T22:35:58.119Z,51.13
2018-04-01T22:38:26.264Z,53.87
2018-04-01T22:40:55.707Z,64.17
2018-04-01T22:43:23.835Z,53.93
2018-04-01T22:45:51.950Z,57.33
2018-04-01T22:48:20.084Z,58.63
2018-04-01T22:50:48.202Z,56.27
2018-04-01T22:53:17.315Z,69.90
2018-04-01T22:55:46.211Z,58.77
2018-04-01T22:58:15.410Z,60.93
2018-04-01T23:00:44.303Z,62.20
2018-04-01T23:03:12.415Z,60.43
2018-04-01T23:05:40.552Z,56.13
2018-04-01T23:08:08.676Z,61.50
2018-04-01T23:10:36.817Z,55.27
2018-04-01T23:13:04.919Z,61.70
2018-04-01T23:15:33.055Z,56.90
2018-04-01T23:18:01.155Z,57.37
2018-04-01T23:20:29.355Z,56.80
2018-04-01T23:22:57.462Z,63.80
2018-04-01T23:25:25.599Z,64.53
2018-04-01T23:27:53.703Z,62.17
2018-04-01T23:30:21.858Z,63.20
2018-04-01T23:32:50.019Z,62.50
2018-04-01T23:35:18.159Z,58.87
2018-04-01T23:37:46.274Z,54.80
2018-04-01T23:40:14.412Z,60.87
2018-04-01T23:42:42.531Z,61.90
2018-04-01T23:45:11.530Z,61.03
2018-04-01T23:47:40.408Z,57.07
2018-04-01T23:50:08.556Z,58.77
2018-04-01T23:52:36.691Z,60.27
2018-04-01T23:55:04.818Z,60.27
2018-04-01T23:57:32.923Z,59.70
